createdAt,value
2023-05-07T00:01:13.547Z,4.72
2023-05-07T00:03:40.310Z,3.42
2023-05-07T00:06:07.070Z,4.60
2023-05-07T00:08:33.974Z,3.13
2023-05-07T00:11:00.526Z,2.67
2023-05-07T00:13:27.054Z,3.88
2023-05-07T00:15:53.670Z,3.13
2023-05-07T00:18:23.402Z,5.95
2023-05-07T00:20:49.854Z,3.63
2023-05-07T00:23:16.450Z,4.68
2023-05-07T00:25:42.885Z,3.08
2023-05-07T00:28:09.314Z,4.05
2023-05-07T00:30:35.835Z,5.20
2023-05-07T00:33:02.415Z,4.25
2023-05-07T00:35:29.705Z,4.45
2023-05-07T00:37:56.442Z,3.20
2023-05-07T00:40:22.879Z,2.97
2023-05-07T00:42:49.918Z,6.07
2023-05-07T00:45:17.783Z,4.93
2023-05-07T00:47:44.852Z,3.90
2023-05-07T00:50:13.492Z,3.75
2023-05-07T00:52:40.485Z,4.28
2023-05-07T00:55:08.165Z,4.18
2023-05-07T00:57:40.356Z,3.50
2023-05-07T01:00:13.856Z,3.92
2023-05-07T01:02:41.006Z,3.75
2023-05-07T01:05:10.726Z,3.78
2023-05-07T01:07:39.551Z,4.47
2023-05-07T01:10:07.268Z,3.00
2023-05-07T01:12:35.249Z,7.72
2023-05-07T01:15:02.908Z,5.32
2023-05-07T01:17:29.452Z,4.72
2023-05-07T01:19:56.424Z,3.33
2023-05-07T01:22:39.413Z,4.35
2023-05-07T01:25:08.452Z,3.57
2023-05-07T01:27:38.066Z,4.40
2023-05-07T01:30:06.071Z,3.83
2023-05-07T01:32:58.792Z,4.40
2023-05-07T01:35:33.359Z,3.90
2023-05-07T01:38:00.129Z,3.30
2023-05-07T01:40:27.740Z,3.30
2023-05-07T01:42:55.582Z,5.77
2023-05-07T01:45:22.864Z,3.15
2023-05-07T01:47:50.774Z,3.87
2023-05-07T01:50:20.184Z,4.57
2023-05-07T01:52:47.885Z,4.50
2023-05-07T01:55:14.457Z,3.73
2023-05-07T01:57:40.922Z,3.93
2023-05-07T02:00:09.686Z,3.83
2023-05-07T02:02:42.806Z,4.10
2023-05-07T02:05:19.633Z,4.93
2023-05-07T02:07:50.700Z,3.50
2023-05-07T02:10:18.025Z,3.40
2023-05-07T02:12:44.873Z,6.60
2023-05-07T02:15:11.843Z,4.23
2023-05-07T02:17:58.355Z,4.47
2023-05-07T02:20:24.858Z,3.30
2023-05-07T02:22:51.340Z,5.97
2023-05-07T02:25:18.124Z,3.80
2023-05-07T02:27:44.739Z,3.33
2023-05-07T02:30:12.509Z,3.37
2023-05-07T02:32:39.117Z,3.40
2023-05-07T02:35:05.836Z,4.23
2023-05-07T02:37:32.433Z,4.63
2023-05-07T02:39:59.299Z,2.90
2023-05-07T02:42:25.730Z,3.17
2023-05-07T02:44:52.854Z,3.17
2023-05-07T02:47:19.954Z,4.47
2023-05-07T02:49:46.622Z,3.23
2023-05-07T02:52:13.746Z,4.63
2023-05-07T02:54:40.284Z,4.73
2023-05-07T02:57:06.718Z,4.10
2023-05-07T02:59:33.468Z,3.53
2023-05-07T03:02:00.181Z,6.03
2023-05-07T03:04:26.743Z,3.40
2023-05-07T03:06:53.294Z,5.40
2023-05-07T03:09:20.315Z,3.70
2023-05-07T03:11:46.879Z,5.57
2023-05-07T03:14:13.380Z,3.47
2023-05-07T03:16:40.587Z,3.17
2023-05-07T03:19:07.255Z,3.83
2023-05-07T03:21:34.769Z,3.50
2023-05-07T03:24:01.705Z,2.87
2023-05-07T03:26:28.234Z,3.10
2023-05-07T03:28:56.323Z,4.67
2023-05-07T03:31:22.897Z,2.73
2023-05-07T03:33:55.255Z,3.70
2023-05-07T03:36:22.263Z,3.50
2023-05-07T03:38:49.725Z,3.00
2023-05-07T03:41:19.584Z,4.57
2023-05-07T03:43:46.568Z,3.40
2023-05-07T03:46:13.562Z,4.63
2023-05-07T03:48:41.127Z,2.93
2023-05-07T03:51:07.918Z,4.13
2023-05-07T03:53:34.356Z,3.33
2023-05-07T03:56:00.997Z,3.27
2023-05-07T03:58:30.545Z,4.83
2023-05-07T04:01:00.157Z,3.53
2023-05-07T04:03:28.855Z,3.70
2023-05-07T04:05:58.397Z,3.50
2023-05-07T04:08:24.926Z,4.50
2023-05-07T04:11:01.432Z,4.63
2023-05-07T04:13:31.452Z,3.47
2023-05-07T04:15:59.727Z,3.60
2023-05-07T04:18:26.856Z,3.60
2023-05-07T04:20:53.648Z,3.70
2023-05-07T04:23:20.707Z,4.67
2023-05-07T04:25:47.233Z,3.47
2023-05-07T04:28:21.871Z,3.30
2023-05-07T04:30:50.965Z,4.23
2023-05-07T04:33:20.758Z,4.00
2023-05-07T04:35:48.473Z,4.70
2023-05-07T04:38:15.752Z,4.33
2023-05-07T04:40:43.214Z,3.37
2023-05-07T04:43:12.593Z,3.40
2023-05-07T04:45:45.465Z,3.57
2023-05-07T04:48:11.980Z,7.23
2023-05-07T04:50:40.840Z,4.73
2023-05-07T04:53:08.251Z,8.87
2023-05-07T04:55:34.876Z,4.83
2023-05-07T04:58:02.964Z,3.60
2023-05-07T05:00:32.525Z,3.90
2023-05-07T05:03:00.841Z,6.63
2023-05-07T05:05:29.026Z,3.30
2023-05-07T05:07:55.745Z,3.93
2023-05-07T05:10:24.589Z,5.33
2023-05-07T05:12:51.970Z,3.80
2023-05-07T05:15:19.910Z,3.97
2023-05-07T05:17:46.479Z,6.20
2023-05-07T05:20:13.423Z,4.93
2023-05-07T05:22:42.693Z,4.23
2023-05-07T05:25:11.621Z,5.63
2023-05-07T05:27:38.050Z,4.30
2023-05-07T05:30:06.763Z,4.33
2023-05-07T05:32:34.735Z,4.40
2023-05-07T05:35:01.793Z,4.47
2023-05-07T05:37:31.162Z,4.87
2023-05-07T05:39:58.552Z,3.77
2023-05-07T05:42:26.958Z,3.63
2023-05-07T05:44:55.073Z,4.07
2023-05-07T05:47:23.360Z,3.70
2023-05-07T05:49:53.973Z,3.93
2023-05-07T05:52:20.840Z,4.23
2023-05-07T05:54:47.461Z,6.30
2023-05-07T05:57:14.703Z,5.50
2023-05-07T05:59:41.202Z,4.20
2023-05-07T06:02:08.533Z,3.90
2023-05-07T06:04:35.215Z,3.33
2023-05-07T06:07:02.573Z,5.60
2023-05-07T06:09:29.490Z,3.43
2023-05-07T06:11:57.169Z,3.70
2023-05-07T06:14:25.001Z,3.38
2023-05-07T06:16:51.730Z,3.50
2023-05-07T06:19:23.920Z,4.03
2023-05-07T06:21:52.025Z,4.17
2023-05-07T06:24:18.881Z,3.72
2023-05-07T06:26:45.362Z,4.77
2023-05-07T06:29:13.326Z,3.90
2023-05-07T06:31:41.978Z,4.18
2023-05-07T06:34:09.802Z,4.17
2023-05-07T06:36:38.258Z,4.68
2023-05-07T06:39:32.529Z,4.53
2023-05-07T06:41:59.079Z,3.55
2023-05-07T06:44:31.518Z,3.38
2023-05-07T06:47:10.349Z,5.97
2023-05-07T06:49:39.231Z,3.92
2023-05-07T06:52:05.729Z,4.40
2023-05-07T06:54:32.564Z,2.97
2023-05-07T06:56:59.208Z,3.20
2023-05-07T06:59:27.587Z,3.92
2023-05-07T07:01:54.657Z,4.03
2023-05-07T07:04:23.272Z,2.75
2023-05-07T07:06:58.159Z,3.60
2023-05-07T07:09:24.584Z,2.97
2023-05-07T07:11:52.057Z,4.47
2023-05-07T07:14:19.301Z,3.63
2023-05-07T07:16:49.617Z,4.03
2023-05-07T07:19:17.777Z,3.65
2023-05-07T07:21:45.881Z,2.63
2023-05-07T07:24:14.500Z,2.92
2023-05-07T07:26:40.978Z,2.70
2023-05-07T07:29:07.833Z,4.03
2023-05-07T07:31:34.357Z,3.40
2023-05-07T07:34:01.006Z,3.67
2023-05-07T07:36:42.504Z,2.53
2023-05-07T07:39:13.373Z,3.05
2023-05-07T07:41:40.078Z,4.32
2023-05-07T07:44:08.510Z,3.38
2023-05-07T07:46:37.169Z,1.90
2023-05-07T07:49:03.853Z,3.65
2023-05-07T07:51:31.481Z,2.60
2023-05-07T07:53:59.917Z,2.88
2023-05-07T07:56:27.163Z,4.22
2023-05-07T07:58:53.689Z,3.33
2023-05-07T08:01:20.648Z,2.08
2023-05-07T08:03:47.862Z,3.22
2023-05-07T08:06:15.293Z,3.20
2023-05-07T08:08:41.983Z,2.10
2023-05-07T08:11:09.046Z,3.25
2023-05-07T08:13:37.411Z,2.55
2023-05-07T08:16:04.229Z,2.55
2023-05-07T08:18:30.992Z,2.78
2023-05-07T08:21:00.814Z,1.60
2023-05-07T08:23:27.335Z,1.70
2023-05-07T08:25:54.667Z,2.28
2023-05-07T08:28:22.367Z,2.13
2023-05-07T08:30:49.057Z,2.75
2023-05-07T08:33:15.936Z,2.38
2023-05-07T08:35:42.460Z,3.08
2023-05-07T08:38:11.241Z,3.22
2023-05-07T08:40:39.801Z,4.78
2023-05-07T08:43:13.931Z,2.88
2023-05-07T08:45:41.834Z,2.40
2023-05-07T08:48:16.644Z,2.45
2023-05-07T08:50:47.028Z,2.95
2023-05-07T08:53:14.425Z,1.60
2023-05-07T08:55:41.417Z,3.75
2023-05-07T08:58:08.084Z,2.60
2023-05-07T09:00:41.220Z,1.65
2023-05-07T09:03:08.222Z,2.53
2023-05-07T09:05:36.898Z,2.08
2023-05-07T09:08:07.016Z,2.67
2023-05-07T09:10:34.869Z,2.25
2023-05-07T09:13:04.001Z,2.13
2023-05-07T09:15:30.896Z,2.97
2023-05-07T09:18:02.450Z,1.30
2023-05-07T09:20:32.810Z,2.33
2023-05-07T09:23:00.317Z,2.75
2023-05-07T09:25:33.154Z,2.67
2023-05-07T09:28:08.120Z,1.38
2023-05-07T09:30:35.413Z,1.77
2023-05-07T09:33:04.911Z,2.28
2023-05-07T09:35:34.160Z,1.52
2023-05-07T09:38:06.692Z,1.50
2023-05-07T09:40:36.174Z,1.40
2023-05-07T09:43:14.732Z,2.08
2023-05-07T09:45:54.231Z,1.65
2023-05-07T09:48:25.260Z,1.58
2023-05-07T09:50:59.427Z,2.50
2023-05-07T09:53:30.895Z,1.85
2023-05-07T09:55:59.076Z,1.88
2023-05-07T09:58:27.160Z,2.05
2023-05-07T10:00:56.535Z,2.00
2023-05-07T10:03:25.635Z,1.92
2023-05-07T10:05:59.574Z,1.33
2023-05-07T10:08:26.846Z,3.33
2023-05-07T10:10:56.959Z,2.53
2023-05-07T10:13:26.339Z,1.60
2023-05-07T10:15:56.665Z,1.35
2023-05-07T10:18:30.834Z,4.53
2023-05-07T10:21:09.384Z,2.67
2023-05-07T10:23:37.116Z,3.05
2023-05-07T10:26:09.087Z,1.48
2023-05-07T10:28:41.695Z,1.80
2023-05-07T10:31:16.961Z,3.22
2023-05-07T10:33:48.980Z,3.63
2023-05-07T10:36:17.239Z,1.60
2023-05-07T10:38:44.489Z,2.55
2023-05-07T10:41:12.266Z,2.33
2023-05-07T10:43:43.844Z,1.70
2023-05-07T10:46:19.950Z,3.17
2023-05-07T10:49:02.105Z,3.00
2023-05-07T10:51:36.323Z,2.70
2023-05-07T10:54:16.388Z,3.92
2023-05-07T10:56:52.365Z,2.63
2023-05-07T10:59:24.725Z,3.15
2023-05-07T11:01:57.047Z,4.30
2023-05-07T11:04:35.463Z,3.60
2023-05-07T11:07:10.105Z,2.33
2023-05-07T11:10:06.426Z,4.45
2023-05-07T11:12:42.037Z,2.08
2023-05-07T11:15:33.926Z,2.10
2023-05-07T11:18:01.242Z,2.50
2023-05-07T11:20:53.953Z,2.33
2023-05-07T11:23:38.379Z,2.30
2023-05-07T11:26:23.388Z,2.35
2023-05-07T11:28:50.050Z,2.15
2023-05-07T11:31:21.931Z,3.10
2023-05-07T11:33:48.618Z,5.07
2023-05-07T11:36:17.781Z,2.42
2023-05-07T11:38:47.900Z,2.45
2023-05-07T11:41:14.329Z,3.08
2023-05-07T11:43:56.205Z,2.92
2023-05-07T11:46:22.967Z,3.33
2023-05-07T11:48:49.568Z,2.70
2023-05-07T11:51:20.457Z,3.03
2023-05-07T11:53:46.977Z,3.25
2023-05-07T11:56:15.495Z,2.55
2023-05-07T11:58:43.625Z,2.60
2023-05-07T12:01:11.839Z,2.75
2023-05-07T12:03:43.635Z,2.75
2023-05-07T12:06:10.805Z,3.58
2023-05-07T12:08:39.064Z,4.00
2023-05-07T12:11:09.656Z,2.33
2023-05-07T12:13:36.504Z,3.00
2023-05-07T12:16:06.412Z,2.85
2023-05-07T12:18:33.887Z,3.67
2023-05-07T12:21:00.572Z,3.00
2023-05-07T12:23:27.518Z,2.97
2023-05-07T12:25:54.162Z,3.72
2023-05-07T12:28:20.784Z,3.83
2023-05-07T12:30:49.015Z,4.32
2023-05-07T12:33:20.121Z,4.63
2023-05-07T12:35:48.837Z,3.83
2023-05-07T12:38:18.283Z,3.53
2023-05-07T12:40:54.680Z,4.95
2023-05-07T12:43:25.089Z,7.05
2023-05-07T12:45:52.762Z,5.13
2023-05-07T12:48:20.794Z,5.63
2023-05-07T12:50:54.134Z,5.65
2023-05-07T12:53:25.897Z,3.92
2023-05-07T12:55:54.518Z,7.72
2023-05-07T12:58:22.194Z,8.57
2023-05-07T13:00:50.758Z,8.75
2023-05-07T13:03:26.270Z,6.07
2023-05-07T13:05:53.960Z,6.55
2023-05-07T13:08:28.757Z,8.98
2023-05-07T13:10:55.303Z,7.10
2023-05-07T13:13:22.076Z,8.80
2023-05-07T13:15:49.133Z,10.00
2023-05-07T13:18:15.816Z,9.90
2023-05-07T13:20:42.351Z,11.15
2023-05-07T13:23:08.781Z,7.40
2023-05-07T13:25:36.987Z,9.00
2023-05-07T13:28:10.729Z,10.13
2023-05-07T13:30:37.952Z,6.85
2023-05-07T13:33:04.503Z,11.82
2023-05-07T13:35:31.088Z,9.05
2023-05-07T13:37:57.527Z,8.85
2023-05-07T13:40:24.302Z,9.63
2023-05-07T13:42:51.818Z,8.18
2023-05-07T13:45:21.586Z,7.00
2023-05-07T13:47:49.923Z,9.45
2023-05-07T13:50:16.994Z,10.10
2023-05-07T13:52:47.273Z,6.75
2023-05-07T13:55:13.863Z,8.68
2023-05-07T13:57:40.893Z,7.22
2023-05-07T14:00:08.061Z,8.73
2023-05-07T14:02:42.055Z,8.27
2023-05-07T14:05:09.988Z,5.93
2023-05-07T14:07:36.870Z,4.63
2023-05-07T14:10:03.880Z,4.35
2023-05-07T14:12:30.388Z,6.95
2023-05-07T14:14:57.358Z,7.47
2023-05-07T14:17:26.300Z,6.38
2023-05-07T14:19:54.576Z,7.63
2023-05-07T14:22:22.985Z,5.32
2023-05-07T14:25:14.357Z,7.20
2023-05-07T14:27:36.929Z,6.85
2023-05-07T14:30:03.603Z,5.75
2023-05-07T14:32:30.189Z,5.35
2023-05-07T14:34:56.725Z,8.23
2023-05-07T14:37:24.982Z,6.07
2023-05-07T14:39:51.436Z,5.95
2023-05-07T14:42:18.658Z,4.55
2023-05-07T14:44:46.487Z,5.65
2023-05-07T14:47:13.930Z,7.03
2023-05-07T14:49:41.523Z,5.45
2023-05-07T14:52:09.038Z,6.45
2023-05-07T14:54:38.474Z,5.60
2023-05-07T14:57:06.767Z,5.93
2023-05-07T14:59:33.214Z,4.85
2023-05-07T15:01:59.859Z,6.07
2023-05-07T15:04:26.372Z,5.43
2023-05-07T15:06:54.676Z,5.03
2023-05-07T15:09:21.230Z,4.78
2023-05-07T15:11:47.662Z,5.13
2023-05-07T15:14:14.135Z,5.50
2023-05-07T15:16:40.775Z,5.93
2023-05-07T15:19:07.277Z,6.75
2023-05-07T15:21:35.594Z,5.88
2023-05-07T15:24:03.001Z,5.47
2023-05-07T15:26:30.128Z,8.18
2023-05-07T15:28:59.391Z,4.90
2023-05-07T15:31:26.401Z,5.00
2023-05-07T15:33:53.344Z,6.30
2023-05-07T15:36:21.419Z,6.30
2023-05-07T15:38:47.989Z,4.05
2023-05-07T15:41:14.506Z,4.55
2023-05-07T15:43:49.708Z,6.10
2023-05-07T15:46:26.860Z,4.43
2023-05-07T15:48:54.153Z,5.38
2023-05-07T15:51:21.142Z,4.85
2023-05-07T15:53:47.704Z,4.13
2023-05-07T15:56:14.229Z,6.10
2023-05-07T15:58:40.712Z,4.38
2023-05-07T16:01:07.190Z,5.25
2023-05-07T16:03:34.072Z,6.30
2023-05-07T16:06:00.944Z,6.30
2023-05-07T16:08:27.527Z,5.22
2023-05-07T16:10:54.204Z,5.95
2023-05-07T16:13:20.890Z,6.97
2023-05-07T16:15:48.299Z,6.97
2023-05-07T16:18:17.390Z,6.72
2023-05-07T16:20:43.868Z,6.50
2023-05-07T16:23:10.578Z,8.38
2023-05-07T16:25:37.026Z,9.73
2023-05-07T16:28:03.485Z,5.50
2023-05-07T16:30:30.055Z,5.03
2023-05-07T16:32:56.543Z,5.00
2023-05-07T16:35:23.052Z,7.63
2023-05-07T16:37:49.698Z,4.85
2023-05-07T16:40:16.612Z,5.20
2023-05-07T16:42:43.143Z,4.07
2023-05-07T16:45:10.010Z,6.28
2023-05-07T16:47:36.575Z,5.90
2023-05-07T16:50:05.574Z,6.20
2023-05-07T16:52:32.389Z,6.93
2023-05-07T16:55:01.278Z,4.30
2023-05-07T16:57:29.367Z,4.18
2023-05-07T16:59:56.252Z,3.95
2023-05-07T17:02:23.312Z,3.58
2023-05-07T17:04:49.794Z,4.00
2023-05-07T17:07:16.867Z,3.42
2023-05-07T17:09:43.444Z,4.35
2023-05-07T17:12:09.860Z,2.58
2023-05-07T17:14:36.275Z,2.83
2023-05-07T17:17:02.836Z,3.35
2023-05-07T17:19:29.238Z,4.30
2023-05-07T17:21:55.897Z,3.53
2023-05-07T17:24:22.502Z,3.95
2023-05-07T17:26:48.972Z,4.82
2023-05-07T17:29:15.601Z,3.38
2023-05-07T17:31:42.150Z,3.35
2023-05-07T17:34:08.693Z,3.45
2023-05-07T17:36:35.261Z,2.35
2023-05-07T17:39:02.400Z,6.40
2023-05-07T17:41:28.909Z,3.15
2023-05-07T17:43:55.466Z,3.08
2023-05-07T17:46:22.057Z,3.08
2023-05-07T17:48:48.477Z,2.45
2023-05-07T17:51:14.873Z,2.83
2023-05-07T17:53:41.368Z,3.45
2023-05-07T17:56:07.764Z,3.50
2023-05-07T17:58:38.862Z,3.92
2023-05-07T18:01:14.592Z,5.00
2023-05-07T18:03:41.346Z,2.85
2023-05-07T18:06:10.072Z,2.65
2023-05-07T18:08:36.823Z,2.67
2023-05-07T18:11:05.705Z,2.33
2023-05-07T18:13:32.274Z,3.95
2023-05-07T18:15:58.968Z,5.95
2023-05-07T18:18:28.139Z,3.17
2023-05-07T18:20:54.971Z,2.92
2023-05-07T18:23:21.435Z,2.58
2023-05-07T18:25:47.913Z,5.63
2023-05-07T18:28:14.446Z,3.30
2023-05-07T18:30:40.962Z,5.20
2023-05-07T18:33:07.815Z,3.90
2023-05-07T18:35:34.461Z,3.70
2023-05-07T18:38:00.928Z,6.07
2023-05-07T18:40:27.344Z,3.80
2023-05-07T18:42:54.006Z,5.50
2023-05-07T18:45:20.646Z,4.47
2023-05-07T18:47:47.646Z,4.32
2023-05-07T18:50:15.236Z,5.68
2023-05-07T18:52:41.817Z,4.22
2023-05-07T18:55:09.452Z,3.45
2023-05-07T18:57:36.000Z,3.33
2023-05-07T19:00:02.499Z,4.85
2023-05-07T19:02:29.096Z,3.78
2023-05-07T19:04:55.641Z,4.63
2023-05-07T19:07:22.197Z,3.38
2023-05-07T19:10:01.202Z,8.48
2023-05-07T19:12:31.224Z,4.25
2023-05-07T19:14:57.589Z,7.32
2023-05-07T19:17:24.180Z,3.72
2023-05-07T19:19:50.702Z,3.97
2023-05-07T19:22:17.274Z,4.93
2023-05-07T19:24:43.742Z,3.78
2023-05-07T19:27:10.261Z,5.50
2023-05-07T19:29:36.661Z,4.65
2023-05-07T19:32:03.346Z,5.05
2023-05-07T19:34:30.704Z,5.28
2023-05-07T19:36:57.328Z,5.10
2023-05-07T19:39:23.757Z,3.85
2023-05-07T19:41:50.478Z,2.90
2023-05-07T19:44:16.868Z,3.08
2023-05-07T19:46:45.673Z,5.35
2023-05-07T19:49:13.055Z,3.20
2023-05-07T19:51:39.964Z,4.65
2023-05-07T19:54:06.606Z,3.40
2023-05-07T19:56:33.299Z,5.38
2023-05-07T19:58:59.730Z,3.42
2023-05-07T20:01:27.765Z,3.50
2023-05-07T20:03:54.784Z,4.47
2023-05-07T20:06:23.133Z,3.63
2023-05-07T20:08:50.109Z,4.03
2023-05-07T20:11:16.590Z,3.08
2023-05-07T20:13:42.971Z,3.35
2023-05-07T20:16:09.594Z,3.17
2023-05-07T20:18:36.381Z,3.20
2023-05-07T20:21:04.391Z,2.50
2023-05-07T20:23:30.968Z,6.97
2023-05-07T20:25:57.910Z,3.90
2023-05-07T20:28:25.281Z,4.63
2023-05-07T20:30:51.912Z,3.72
2023-05-07T20:33:18.616Z,2.90
2023-05-07T20:35:45.142Z,2.97
2023-05-07T20:38:11.766Z,4.72
2023-05-07T20:40:38.390Z,3.17
2023-05-07T20:43:07.853Z,3.47
2023-05-07T20:45:34.274Z,7.10
2023-05-07T20:48:01.208Z,4.75
2023-05-07T20:50:28.005Z,3.97
2023-05-07T20:52:54.400Z,4.00
2023-05-07T20:55:20.880Z,3.10
2023-05-07T20:57:47.305Z,3.63
2023-05-07T21:00:15.712Z,8.32
2023-05-07T21:02:42.396Z,3.70
2023-05-07T21:05:09.081Z,4.00
2023-05-07T21:07:35.585Z,3.78
2023-05-07T21:10:02.056Z,3.90
2023-05-07T21:12:28.494Z,3.60
2023-05-07T21:14:56.544Z,4.43
2023-05-07T21:17:22.969Z,5.03
2023-05-07T21:19:50.013Z,7.70
2023-05-07T21:22:16.479Z,4.10
2023-05-07T21:24:42.901Z,4.45
2023-05-07T21:27:09.400Z,4.43
2023-05-07T21:29:35.927Z,4.30
2023-05-07T21:32:03.742Z,3.30
2023-05-07T21:34:30.290Z,3.72
2023-05-07T21:36:56.811Z,3.38
2023-05-07T21:39:24.641Z,2.88
2023-05-07T21:41:51.112Z,2.90
2023-05-07T21:44:17.564Z,4.57
2023-05-07T21:46:44.269Z,4.95
2023-05-07T21:49:10.848Z,3.83
2023-05-07T21:51:37.411Z,4.60
2023-05-07T21:54:04.012Z,4.68
2023-05-07T21:56:30.631Z,4.43
2023-05-07T21:58:57.040Z,5.30
2023-05-07T22:01:23.597Z,3.50
2023-05-07T22:03:50.203Z,3.42
2023-05-07T22:06:21.485Z,5.18
2023-05-07T22:08:51.173Z,2.88
2023-05-07T22:11:17.726Z,2.80
2023-05-07T22:13:44.186Z,3.67
2023-05-07T22:16:10.849Z,5.35
2023-05-07T22:18:37.426Z,4.63
2023-05-07T22:21:04.036Z,3.97
2023-05-07T22:23:30.562Z,3.53
2023-05-07T22:25:57.085Z,4.22
2023-05-07T22:28:23.500Z,3.58
2023-05-07T22:30:51.185Z,3.97
2023-05-07T22:33:17.714Z,3.17
2023-05-07T22:35:44.418Z,3.33
2023-05-07T22:38:10.929Z,3.60
2023-05-07T22:40:37.404Z,3.33
2023-05-07T22:43:03.796Z,4.10
2023-05-07T22:45:30.292Z,3.63
2023-05-07T22:47:56.842Z,3.67
2023-05-07T22:50:23.339Z,3.42
2023-05-07T22:52:49.828Z,4.32
2023-05-07T22:55:16.690Z,3.45
2023-05-07T22:57:43.163Z,3.88
2023-05-07T23:00:10.839Z,3.40
2023-05-07T23:02:37.673Z,3.45
2023-05-07T23:05:04.542Z,3.45
2023-05-07T23:07:31.016Z,3.20
2023-05-07T23:09:57.544Z,3.40
2023-05-07T23:12:24.005Z,4.10
2023-05-07T23:14:50.565Z,3.42
2023-05-07T23:17:17.118Z,5.25
2023-05-07T23:19:43.664Z,3.78
2023-05-07T23:22:10.392Z,3.30
2023-05-07T23:24:37.060Z,3.63
2023-05-07T23:27:07.621Z,5.13
2023-05-07T23:29:35.173Z,3.15
2023-05-07T23:32:02.139Z,3.20
2023-05-07T23:34:28.672Z,7.10
2023-05-07T23:36:55.102Z,3.05
2023-05-07T23:39:21.535Z,3.30
2023-05-07T23:41:47.975Z,3.20
2023-05-07T23:44:16.468Z,4.25
2023-05-07T23:46:44.303Z,3.92
2023-05-07T23:49:11.134Z,4.60
2023-05-07T23:51:37.840Z,3.92
2023-05-07T23:54:04.677Z,4.60
2023-05-07T23:56:31.495Z,4.75
2023-05-07T23:58:58.113Z,4.50
